Time;durP1;ratioP1;P1;durP2;ratioP2;P2;SDS_P1;SDS_P2;PMS_P1;PMS_P2;Temp;Humidity;BMP_temperature;BMP_pressure;BME280_temperature;BME280_humidity;BME280_pressure;Samples;Min_cycle;Max_cycle;Signal;HPM_P1;HPM_P2
2021/08/03 00:00:03;110515.00;0.37;191.72;0.00;0.00;0.62;;;;;20.90;1.00;;;;;;2275978;61;1120;-90
2021/08/03 00:02:31;35692.00;0.12;62.43;0.00;0.00;0.62;;;;;20.70;1.00;;;;;;2275994;61;1097;-89
2021/08/03 00:05:00;149775.00;0.50;259.42;0.00;0.00;0.62;;;;;20.20;1.00;;;;;;2276271;61;1137;-89
2021/08/03 00:07:29;41243.00;0.14;72.04;0.00;0.00;0.62;;;;;19.90;1.00;;;;;;2276159;61;1391;-89
2021/08/03 00:09:57;18941.00;0.06;33.44;0.00;0.00;0.62;;;;;20.30;1.00;;;;;;2276202;61;1057;-90
2021/08/03 00:12:25;329553.00;1.10;568.72;43228.00;0.14;75.47;;;;;20.10;1.00;;;;;;2276147;61;1994;-89
2021/08/03 00:14:54;55471.00;0.18;96.65;0.00;0.00;0.62;;;;;20.20;1.00;;;;;;2276185;61;1106;-90
2021/08/03 00:17:24;60916.00;0.20;106.06;0.00;0.00;0.62;;;;;20.40;1.00;;;;;;2276058;61;1425;-90
2021/08/03 00:19:52;45682.00;0.15;79.72;0.00;0.00;0.62;;;;;20.60;1.00;;;;;;2276130;61;1174;-90
2021/08/03 00:22:19;15506.00;0.05;27.49;0.00;0.00;0.62;;;;;20.20;1.00;;;;;;2276048;61;1145;-90
2021/08/03 00:24:49;30187.00;0.10;52.91;0.00;0.00;0.62;;;;;20.20;1.00;;;;;;2275753;61;1163;-89
2021/08/03 00:27:16;16863.00;0.06;29.84;0.00;0.00;0.62;;;;;20.40;1.00;;;;;;2275470;61;1391;-89
2021/08/03 00:29:43;67728.00;0.23;117.83;0.00;0.00;0.62;;;;;20.40;1.00;;;;;;2275399;61;1112;-90
2021/08/03 00:32:11;36016.00;0.12;62.99;0.00;0.00;0.62;;;;;20.20;1.00;;;;;;2275561;61;1923;-89
2021/08/03 00:34:38;254788.00;0.85;440.19;17492.00;0.06;30.93;;;;;20.20;1.00;;;;;;2275703;61;1230;-90
2021/08/03 00:37:07;0.00;0.00;0.62;0.00;0.00;0.62;;;;;20.20;1.00;;;;;;2276012;61;1388;-90
2021/08/03 00:39:35;108057.00;0.36;187.48;24575.00;0.08;43.19;;;;;20.10;1.00;;;;;;2276001;61;1141;-90
2021/08/03 00:42:05;189670.00;0.63;328.14;37652.00;0.13;65.83;;;;;20.20;1.00;;;;;;2276212;61;1061;-89
2021/08/03 00:44:40;0.00;0.00;0.62;0.00;0.00;0.62;;;;;19.90;1.00;;;;;;2276079;61;911;-90
2021/08/03 00:47:07;367748.00;1.23;634.37;0.00;0.00;0.62;;;;;20.30;1.00;;;;;;2275989;61;1361;-90
2021/08/03 00:49:34;453975.00;1.51;782.62;0.00;0.00;0.62;;;;;20.40;1.00;;;;;;2276125;61;1570;-89
2021/08/03 00:54:29;10481.00;0.03;18.78;0.00;0.00;0.62;;;;;19.90;1.00;;;;;;2278118;60;1403;-78
2021/08/03 00:56:57;131885.00;0.44;228.58;0.00;0.00;0.62;;;;;19.70;1.00;;;;;;2276297;60;1013;-79
2021/08/03 00:59:25;0.00;0.00;0.62;0.00;0.00;0.62;;;;;19.70;1.00;;;;;;2276355;60;905;-79
2021/08/03 01:01:53;0.00;0.00;0.62;0.00;0.00;0.62;;;;;19.80;1.00;;;;;;2269009;61;1404;-80
2021/08/03 01:04:20;0.00;0.00;0.62;0.00;0.00;0.62;;;;;20.30;1.00;;;;;;2268983;61;1012;-81
2021/08/03 01:06:53;123913.00;0.41;214.83;0.00;0.00;0.62;;;;;20.70;1.00;;;;;;2272968;61;1024;-78
2021/08/03 01:09:27;32056.00;0.11;56.14;0.00;0.00;0.62;;;;;20.90;1.00;;;;;;2265573;61;1026;-79
2021/08/03 01:11:57;163578.00;0.55;283.20;0.00;0.00;0.62;;;;;21.00;1.00;;;;;;2265818;61;1452;-81
2021/08/03 01:14:33;270789.00;0.90;467.70;17174.00;0.06;30.38;;;;;20.90;1.00;;;;;;2269061;61;2022;-82
2021/08/03 01:17:06;96832.00;0.32;168.10;0.00;0.00;0.62;;;;;20.60;1.00;;;;;;2265271;61;1013;-81
2021/08/03 01:19:47;91469.00;0.30;158.84;0.00;0.00;0.62;;;;;20.30;1.00;;;;;;2269233;61;1025;-78
2021/08/03 01:22:34;95970.00;0.32;166.62;0.00;0.00;0.62;;;;;20.00;1.00;;;;;;2264108;61;1409;-79
2021/08/03 01:25:16;41306.00;0.14;72.15;0.00;0.00;0.62;;;;;19.40;1.00;;;;;;2264154;61;1017;-79
2021/08/03 01:28:15;89982.00;0.30;156.28;0.00;0.00;0.62;;;;;19.50;1.00;;;;;;2256503;61;954;-80
2021/08/03 01:30:46;0.00;0.00;0.62;0.00;0.00;0.62;;;;;19.70;1.00;;;;;;2256192;61;1039;-81
2021/08/03 01:33:15;2689.00;0.01;5.28;0.00;0.00;0.62;;;;;19.70;1.00;;;;;;2246384;61;2019;-80
2021/08/03 01:35:45;0.00;0.00;0.62;0.00;0.00;0.62;;;;;19.90;1.00;;;;;;2256025;61;899;-81
2021/08/03 01:38:17;0.00;0.00;0.62;0.00;0.00;0.62;;;;;20.00;1.00;;;;;;2256592;61;1020;-82
2021/08/03 01:40:51;0.00;0.00;0.62;0.00;0.00;0.62;;;;;20.30;1.00;;;;;;2249605;61;982;-79
2021/08/03 01:43:21;0.00;0.00;0.62;0.00;0.00;0.62;;;;;20.60;1.00;;;;;;2242245;61;1431;-81
2021/08/03 01:45:49;85113.00;0.28;147.87;18247.00;0.06;32.23;;;;;20.60;1.00;;;;;;2256049;61;998;-79
2021/08/03 01:48:19;0.00;0.00;0.62;0.00;0.00;0.62;;;;;20.20;1.00;;;;;;2260223;61;985;-79
2021/08/03 01:50:49;0.00;0.00;0.62;0.00;0.00;0.62;;;;;19.80;1.00;;;;;;2253343;61;964;-80
2021/08/03 01:56:01;26682.00;0.09;46.84;0.00;0.00;0.62;;;;;19.80;1.00;;;;;;2290044;60;1428;-82
2021/08/03 01:58:30;0.00;0.00;0.62;0.00;0.00;0.62;;;;;19.00;1.00;;;;;;2283832;61;989;-79
2021/08/03 02:00:58;0.00;0.00;0.62;0.00;0.00;0.62;;;;;18.80;1.00;;;;;;2283742;61;1250;-79
2021/08/03 02:03:28;0.00;0.00;0.62;0.00;0.00;0.62;;;;;18.50;1.00;;;;;;2280047;61;951;-81
2021/08/03 02:05:56;0.00;0.00;0.62;0.00;0.00;0.62;;;;;18.80;1.00;;;;;;2286539;60;1103;-81
2021/08/03 02:08:25;82349.00;0.27;143.09;0.00;0.00;0.62;;;;;18.60;1.00;;;;;;2278513;60;1045;-82
2021/08/03 02:10:52;2653.00;0.01;5.22;0.00;0.00;0.62;;;;;19.00;1.00;;;;;;2279415;60;1048;-80
2021/08/03 02:13:21;124886.00;0.42;216.51;0.00;0.00;0.62;;;;;19.10;1.00;;;;;;2278828;61;1708;-81
2021/08/03 02:15:49;0.00;0.00;0.62;0.00;0.00;0.62;;;;;19.30;1.00;;;;;;2275820;61;2055;-82
2021/08/03 02:18:16;65566.00;0.22;114.10;0.00;0.00;0.62;;;;;19.50;1.00;;;;;;2275872;61;997;-81
2021/08/03 02:20:45;9094.00;0.03;16.38;0.00;0.00;0.62;;;;;19.50;1.00;;;;;;2271255;61;1012;-82
2021/08/03 02:23:13;6063.00;0.02;11.13;0.00;0.00;0.62;;;;;19.00;1.00;;;;;;2271324;61;1345;-81
2021/08/03 02:25:42;63471.00;0.21;110.48;0.00;0.00;0.62;;;;;18.60;1.00;;;;;;2272499;61;1025;-82
2021/08/03 02:28:09;189215.00;0.63;327.36;52722.00;0.18;91.89;;;;;18.60;1.00;;;;;;2272582;61;990;-82
2021/08/03 02:30:41;53977.00;0.18;94.06;0.00;0.00;0.62;;;;;18.60;1.00;;;;;;2278908;60;1339;-82
2021/08/03 02:33:12;74070.00;0.25;128.79;0.00;0.00;0.62;;;;;18.50;1.00;;;;;;2279197;61;1458;-81
2021/08/03 02:35:46;0.00;0.00;0.62;0.00;0.00;0.62;;;;;18.30;1.00;;;;;;2279021;60;2002;-82
2021/08/03 02:38:18;0.00;0.00;0.62;0.00;0.00;0.62;;;;;18.40;1.30;;;;;;2273903;61;1015;-81
2021/08/03 02:40:46;0.00;0.00;0.62;0.00;0.00;0.62;;;;;18.70;1.00;;;;;;2282856;61;965;-80
2021/08/03 02:43:16;94534.00;0.32;164.14;0.00;0.00;0.62;;;;;18.90;1.00;;;;;;2279944;61;1306;-80
2021/08/03 02:45:45;60079.00;0.20;104.61;0.00;0.00;0.62;;;;;18.90;1.60;;;;;;2282646;60;1033;-81
2021/08/03 02:48:15;0.00;0.00;0.62;0.00;0.00;0.62;;;;;19.20;1.00;;;;;;2282894;60;984;-82
2021/08/03 02:50:44;0.00;0.00;0.62;0.00;0.00;0.62;;;;;19.50;1.00;;;;;;2279999;60;1008;-79
2021/08/03 02:53:17;42280.00;0.14;73.83;0.00;0.00;0.62;;;;;19.70;1.90;;;;;;2279674;61;1370;-79
2021/08/03 02:55:51;0.00;0.00;0.62;0.00;0.00;0.62;;;;;20.00;1.00;;;;;;2283354;61;1990;-80
2021/08/03 02:58:26;0.00;0.00;0.62;0.00;0.00;0.62;;;;;20.30;1.00;;;;;;2279782;61;1043;-79
2021/08/03 03:00:54;59929.00;0.20;104.35;0.00;0.00;0.62;;;;;20.40;1.00;;;;;;2279635;60;977;-80
2021/08/03 03:03:26;38770.00;0.13;67.76;0.00;0.00;0.62;;;;;20.20;1.00;;;;;;2279829;61;1454;-79
2021/08/03 03:06:02;320432.00;1.07;553.04;116571.00;0.39;202.17;;;;;20.20;1.00;;;;;;2278554;61;940;-78
2021/08/03 03:08:31;61275.00;0.20;106.68;0.00;0.00;0.62;;;;;20.20;1.00;;;;;;2273887;61;977;-79
2021/08/03 03:11:02;0.00;0.00;0.62;0.00;0.00;0.62;;;;;20.30;1.00;;;;;;2279478;60;1403;-77
2021/08/03 03:13:36;0.00;0.00;0.62;0.00;0.00;0.62;;;;;20.30;1.00;;;;;;2280342;60;953;-81
2021/08/03 03:16:08;0.00;0.00;0.62;0.00;0.00;0.62;;;;;20.40;1.00;;;;;;2280068;60;1937;-80
2021/08/03 03:18:35;0.00;0.00;0.62;0.00;0.00;0.62;;;;;20.30;1.00;;;;;;2276951;60;989;-77
2021/08/03 03:21:04;83706.00;0.28;145.44;9721.00;0.03;17.47;;;;;19.90;1.00;;;;;;2280463;60;1293;-81
2021/08/03 03:23:33;0.00;0.00;0.62;0.00;0.00;0.62;;;;;19.60;1.00;;;;;;2273595;61;936;-79
2021/08/03 03:26:02;144115.00;0.48;249.66;33333.00;0.11;58.35;;;;;19.30;1.00;;;;;;2272241;61;1030;-81
2021/08/03 03:28:31;0.00;0.00;0.62;0.00;0.00;0.62;;;;;19.60;1.00;;;;;;2265735;61;1030;-81
2021/08/03 03:30:59;0.00;0.00;0.62;0.00;0.00;0.62;;;;;19.90;1.00;;;;;;2265360;61;1352;-79
2021/08/03 03:36:00;0.00;0.00;0.62;0.00;0.00;0.62;;;;;19.60;1.00;;;;;;2278917;60;1907;-82
2021/08/03 03:38:31;312934.00;1.04;540.15;26259.00;0.09;46.11;;;;;19.60;1.00;;;;;;2273069;61;1006;-82
2021/08/03 03:40:59;0.00;0.00;0.62;0.00;0.00;0.62;;;;;19.70;1.00;;;;;;2277028;61;1324;-81
2021/08/03 03:43:29;0.00;0.00;0.62;0.00;0.00;0.62;;;;;19.90;1.00;;;;;;2276398;60;950;-82
2021/08/03 03:46:02;0.00;0.00;0.62;0.00;0.00;0.62;;;;;19.70;1.00;;;;;;2276086;61;988;-82
2021/08/03 03:48:33;0.00;0.00;0.62;0.00;0.00;0.62;;;;;19.80;1.00;;;;;;2276172;61;1070;-82
2021/08/03 03:51:05;0.00;0.00;0.62;0.00;0.00;0.62;;;;;20.00;1.00;;;;;;2263947;61;1430;-80
2021/08/03 03:53:39;29564.00;0.10;51.83;0.00;0.00;0.62;;;;;19.90;1.00;;;;;;2264090;61;1019;-80
2021/08/03 03:56:07;0.00;0.00;0.62;0.00;0.00;0.62;;;;;19.70;1.00;;;;;;2259993;61;2005;-81
2021/08/03 03:58:38;0.00;0.00;0.62;0.00;0.00;0.62;;;;;19.50;1.00;;;;;;2256733;61;966;-81
2021/08/03 04:01:06;0.00;0.00;0.62;0.00;0.00;0.62;;;;;19.20;1.00;;;;;;2255872;61;1287;-80
2021/08/03 04:03:37;0.00;0.00;0.62;0.00;0.00;0.62;;;;;19.10;1.00;;;;;;2253906;61;990;-82
2021/08/03 04:06:08;0.00;0.00;0.62;0.00;0.00;0.62;;;;;19.10;1.00;;;;;;2256698;61;1024;-81
2021/08/03 04:08:38;10209.00;0.03;18.31;0.00;0.00;0.62;;;;;19.50;1.00;;;;;;2255694;61;954;-82
2021/08/03 04:11:06;3564.00;0.01;6.80;0.00;0.00;0.62;;;;;19.50;1.00;;;;;;2261407;61;1327;-81
2021/08/03 04:13:34;0.00;0.00;0.62;0.00;0.00;0.62;;;;;19.60;1.00;;;;;;2262323;61;1000;-81
2021/08/03 04:16:00;7787.00;0.03;14.11;0.00;0.00;0.62;;;;;19.30;1.00;;;;;;2271204;61;1932;-80
2021/08/03 04:18:27;0.00;0.00;0.62;0.00;0.00;0.62;;;;;19.50;1.00;;;;;;2272466;61;1358;-79
2021/08/03 04:20:54;6356.00;0.02;11.64;0.00;0.00;0.62;;;;;19.70;1.00;;;;;;2272731;61;927;-82
2021/08/03 04:23:23;71852.00;0.24;124.96;0.00;0.00;0.62;;;;;19.60;1.00;;;;;;2275173;60;1410;-80
2021/08/03 04:25:50;0.00;0.00;0.62;0.00;0.00;0.62;;;;;19.90;1.00;;;;;;2276238;60;1067;-81
2021/08/03 04:28:17;19691.00;0.07;34.74;0.00;0.00;0.62;;;;;19.70;1.00;;;;;;2276236;60;1009;-80
2021/08/03 04:30:44;10776.00;0.04;19.29;0.00;0.00;0.62;;;;;19.30;1.00;;;;;;2276210;60;1089;-81
2021/08/03 04:33:10;34031.00;0.11;59.56;0.00;0.00;0.62;;;;;19.00;1.00;;;;;;2271592;61;1222;-81
2021/08/03 04:35:38;0.00;0.00;0.62;0.00;0.00;0.62;;;;;18.60;1.00;;;;;;2272032;61;1986;-81
2021/08/03 04:38:05;72681.00;0.24;126.39;0.00;0.00;0.62;;;;;18.60;1.00;;;;;;2271969;61;1351;-80
2021/08/03 04:40:35;10295.00;0.03;18.46;0.00;0.00;0.62;;;;;18.40;1.00;;;;;;2269209;61;1033;-81
2021/08/03 04:43:02;0.00;0.00;0.62;0.00;0.00;0.62;;;;;18.10;2.80;;;;;;2269330;61;1468;-82
2021/08/03 04:45:29;0.00;0.00;0.62;0.00;0.00;0.62;;;;;18.20;2.10;;;;;;2269657;61;1004;-81
2021/08/03 04:47:56;0.00;0.00;0.62;0.00;0.00;0.62;;;;;18.50;1.00;;;;;;2272706;61;997;-81
2021/08/03 04:50:25;0.00;0.00;0.62;0.00;0.00;0.62;;;;;18.60;1.00;;;;;;2272506;61;980;-82
2021/08/03 04:52:53;156777.00;0.52;271.49;52082.00;0.17;90.79;;;;;18.60;1.00;;;;;;2272678;61;1420;-79
2021/08/03 04:55:20;6199.00;0.02;11.36;0.00;0.00;0.62;;;;;18.70;1.00;;;;;;2275817;61;1923;-81
2021/08/03 04:57:49;5863.00;0.02;10.78;0.00;0.00;0.62;;;;;19.10;1.00;;;;;;2266165;61;1004;-82
2021/08/03 05:00:17;507604.00;1.69;874.92;165726.00;0.55;286.90;;;;;19.50;1.00;;;;;;2263410;61;1013;-82
2021/08/03 05:02:45;13797.00;0.05;24.53;0.00;0.00;0.62;;;;;19.80;1.00;;;;;;2263846;61;1265;-82
2021/08/03 05:05:13;0.00;0.00;0.62;0.00;0.00;0.62;;;;;20.30;1.00;;;;;;2257092;61;1630;-82
2021/08/03 05:07:40;0.00;0.00;0.62;0.00;0.00;0.62;;;;;20.70;1.00;;;;;;2260475;61;984;-82
2021/08/03 05:10:13;3192.00;0.01;6.15;0.00;0.00;0.62;;;;;20.60;1.00;;;;;;2259772;61;1074;-82
2021/08/03 05:15:10;0.00;0.00;0.62;0.00;0.00;0.62;;;;;20.00;1.00;;;;;;2281973;60;1899;-81
2021/08/03 05:17:37;287027.00;0.96;495.62;0.00;0.00;0.62;;;;;20.00;1.00;;;;;;2273440;60;1063;-80
2021/08/03 05:20:04;0.00;0.00;0.62;0.00;0.00;0.62;;;;;19.90;1.00;;;;;;2269184;60;1049;-82
2021/08/03 05:22:31;0.00;0.00;0.62;0.00;0.00;0.62;;;;;20.10;1.00;;;;;;2275590;60;1290;-80
2021/08/03 05:24:59;36073.00;0.12;63.09;0.00;0.00;0.62;;;;;20.30;1.00;;;;;;2273333;60;898;-80
2021/08/03 05:27:26;0.00;0.00;0.62;0.00;0.00;0.62;;;;;20.20;1.00;;;;;;2270182;60;989;-81
2021/08/03 05:29:53;0.00;0.00;0.62;0.00;0.00;0.62;;;;;19.90;1.00;;;;;;2271813;61;941;-82
2021/08/03 05:32:23;50484.00;0.17;88.02;0.00;0.00;0.62;;;;;19.70;1.00;;;;;;2270781;61;1199;-80
2021/08/03 05:34:50;256668.00;0.86;443.42;73063.00;0.24;127.05;;;;;19.90;1.00;;;;;;2265120;61;2009;-83
2021/08/03 05:37:17;298113.00;0.99;514.68;48379.00;0.16;84.38;;;;;19.80;1.00;;;;;;2268372;61;976;-80
2021/08/03 05:39:44;7205.00;0.02;13.11;0.00;0.00;0.62;;;;;19.70;1.00;;;;;;2265271;61;1020;-83
2021/08/03 05:42:11;87636.00;0.29;152.23;0.00;0.00;0.62;;;;;19.80;1.00;;;;;;2271780;61;1401;-82
2021/08/03 05:44:39;240583.00;0.80;415.75;53887.00;0.18;93.91;;;;;20.30;1.00;;;;;;2261832;61;1010;-83
2021/08/03 05:47:06;29713.00;0.10;52.09;0.00;0.00;0.62;;;;;20.70;1.00;;;;;;2266173;60;984;-81
2021/08/03 05:49:35;0.00;0.00;0.62;0.00;0.00;0.62;;;;;20.70;1.00;;;;;;2280535;60;1019;-80
2021/08/03 05:52:02;0.00;0.00;0.62;0.00;0.00;0.62;;;;;20.70;1.00;;;;;;2273309;60;1400;-80
2021/08/03 05:54:30;50273.00;0.17;87.66;0.00;0.00;0.62;;;;;20.50;1.00;;;;;;2275269;61;929;-79
2021/08/03 05:56:57;0.00;0.00;0.62;0.00;0.00;0.62;;;;;20.40;1.00;;;;;;2275988;60;1927;-80
2021/08/03 05:59:24;5147.00;0.02;9.54;0.00;0.00;0.62;;;;;20.50;1.00;;;;;;2269234;61;953;-80
2021/08/03 06:01:51;0.00;0.00;0.62;0.00;0.00;0.62;;;;;20.70;1.00;;;;;;2275328;60;1175;-81
2021/08/03 06:04:17;0.00;0.00;0.62;0.00;0.00;0.62;;;;;20.80;1.00;;;;;;2269249;61;1064;-81
2021/08/03 06:06:49;94085.00;0.31;163.36;0.00;0.00;0.62;;;;;20.50;1.00;;;;;;2276015;60;1059;-82
2021/08/03 06:09:17;159620.00;0.53;276.38;42217.00;0.14;73.72;;;;;19.80;1.00;;;;;;2276012;60;1042;-80
2021/08/03 06:11:47;34466.00;0.11;60.31;0.00;0.00;0.62;;;;;19.80;1.00;;;;;;2273186;60;1416;-81
2021/08/03 06:14:20;92593.00;0.31;160.78;0.00;0.00;0.62;;;;;20.30;1.00;;;;;;2273243;60;1003;-81
2021/08/03 06:16:53;0.00;0.00;0.62;0.00;0.00;0.62;;;;;20.70;1.00;;;;;;2280522;60;1924;-79
2021/08/03 06:19:26;16196.00;0.05;28.68;0.00;0.00;0.62;;;;;20.90;1.00;;;;;;2271655;61;954;-81
2021/08/03 06:21:57;126434.00;0.42;219.18;23653.00;0.08;41.60;;;;;21.00;1.00;;;;;;2271600;61;1270;-81
2021/08/03 06:24:29;0.00;0.00;0.62;0.00;0.00;0.62;;;;;21.00;1.00;;;;;;2271764;61;1002;-79
2021/08/03 06:26:57;0.00;0.00;0.62;0.00;0.00;0.62;;;;;21.30;1.00;;;;;;2265141;61;977;-82
2021/08/03 06:29:26;0.00;0.00;0.62;0.00;0.00;0.62;;;;;21.40;1.00;;;;;;2271198;61;1016;-81
2021/08/03 06:31:55;220163.00;0.73;380.62;51067.00;0.17;89.03;;;;;21.70;1.00;;;;;;2263640;61;1396;-81
2021/08/03 06:34:22;92076.00;0.31;159.89;25952.00;0.09;45.58;;;;;22.00;1.00;;;;;;2257139;61;991;-81
2021/08/03 06:36:49;25586.00;0.09;44.94;0.00;0.00;0.62;;;;;22.40;1.00;;;;;;2259160;61;1997;-81
2021/08/03 06:39:18;134953.00;0.45;233.87;0.00;0.00;0.62;;;;;22.50;1.00;;;;;;2267607;61;1010;-81
2021/08/03 06:41:47;66665.00;0.22;116.00;0.00;0.00;0.62;;;;;23.20;1.00;;;;;;2264858;61;1247;-81
2021/08/03 06:44:22;6670.00;0.02;12.18;0.00;0.00;0.62;;;;;24.10;1.00;;;;;;2268314;61;1012;-82
2021/08/03 06:46:53;3126.00;0.01;6.04;0.00;0.00;0.62;;;;;24.70;1.00;;;;;;2261738;61;1557;-81
2021/08/03 06:49:23;31096.00;0.10;54.48;0.00;0.00;0.62;;;;;24.30;1.00;;;;;;2270310;61;960;-81
2021/08/03 06:51:55;0.00;0.00;0.62;0.00;0.00;0.62;;;;;23.80;1.00;;;;;;2272270;61;1373;-81
2021/08/03 06:54:27;0.00;0.00;0.62;0.00;0.00;0.62;;;;;24.30;1.00;;;;;;2268364;61;974;-82
2021/08/03 06:57:03;0.00;0.00;0.62;0.00;0.00;0.62;;;;;24.30;1.00;;;;;;2260340;61;1997;-82
2021/08/03 06:59:34;0.00;0.00;0.62;0.00;0.00;0.62;;;;;23.80;1.00;;;;;;2257876;61;986;-83
2021/08/03 07:07:19;599657.00;2.00;1033.63;76919.00;0.26;133.72;;;;;23.30;1.00;;;;;;2283009;61;1298;-85
2021/08/03 07:12:17;1004336.00;3.35;1740.15;50686.00;0.17;88.37;;;;;24.30;1.00;;;;;;2282862;60;1420;-84
2021/08/03 07:14:45;363974.00;1.21;627.88;69757.00;0.23;121.34;;;;;26.00;1.00;;;;;;2281027;60;995;-83
2021/08/03 07:17:17;357383.00;1.19;616.55;70189.00;0.23;122.09;;;;;27.20;1.00;;;;;;2273789;60;2022;-82
2021/08/03 07:19:46;308501.00;1.03;532.53;67820.00;0.23;117.99;;;;;27.80;1.00;;;;;;2273945;60;1036;-83
2021/08/03 07:22:17;550239.00;1.83;948.37;71014.00;0.24;123.51;;;;;27.70;1.00;;;;;;2272147;61;1427;-84
2021/08/03 07:27:23;1067487.00;3.56;1852.38;112383.00;0.37;194.94;;;;;27.90;1.00;;;;;;2282889;61;1278;-86
2021/08/03 07:29:50;461649.00;1.54;795.82;108621.00;0.36;188.45;;;;;26.80;1.00;;;;;;2276256;61;1095;-83
2021/08/03 07:34:45;456235.00;1.52;786.51;80424.00;0.27;139.77;;;;;26.30;1.00;;;;;;2282823;61;1278;-84
2021/08/03 07:42:15;228379.00;0.76;394.76;0.00;0.00;0.62;;;;;26.40;1.00;;;;;;2278722;61;1289;-85
2021/08/03 07:44:44;421534.00;1.41;726.83;33345.00;0.11;58.37;;;;;26.10;1.00;;;;;;2268393;61;1040;-83
2021/08/03 07:49:39;1068799.00;3.56;1854.71;54675.00;0.18;95.27;;;;;26.30;1.00;;;;;;2279127;61;1294;-86
2021/08/03 07:52:07;225792.00;0.75;390.31;0.00;0.00;0.62;;;;;26.20;1.00;;;;;;2277193;60;1273;-83
2021/08/03 07:54:34;285337.00;0.95;492.71;0.00;0.00;0.62;;;;;25.40;1.00;;;;;;2270340;60;955;-82
2021/08/03 07:57:02;331424.00;1.10;571.93;0.00;0.00;0.62;;;;;24.90;1.00;;;;;;2277122;60;1991;-84
2021/08/03 07:59:29;223276.00;0.74;385.98;0.00;0.00;0.62;;;;;24.50;1.00;;;;;;2277378;60;945;-83
2021/08/03 08:01:58;190251.00;0.63;329.14;0.00;0.00;0.62;;;;;23.80;1.00;;;;;;2277340;60;1376;-82
2021/08/03 08:04:25;269354.00;0.90;465.23;0.00;0.00;0.62;;;;;23.90;1.00;;;;;;2277416;60;1033;-84
2021/08/03 08:06:52;433659.00;1.45;747.68;0.00;0.00;0.62;;;;;24.00;1.00;;;;;;2267879;61;949;-82
2021/08/03 08:09:25;192559.00;0.64;333.11;0.00;0.00;0.62;;;;;23.90;1.00;;;;;;2261797;61;1057;-84
2021/08/03 08:14:20;736530.00;2.46;1270.65;0.00;0.00;0.62;;;;;24.10;1.00;;;;;;2278896;60;1496;-81
2021/08/03 08:16:47;284164.00;0.95;490.70;0.00;0.00;0.62;;;;;24.20;1.00;;;;;;2272315;61;1993;-82
2021/08/03 08:26:41;624880.00;2.08;1077.20;0.00;0.00;0.62;;;;;25.00;1.00;;;;;;2279002;60;1414;-84
2021/08/03 08:29:08;105600.00;0.35;183.24;0.00;0.00;0.62;;;;;25.10;1.00;;;;;;2270146;60;985;-84
2021/08/03 08:31:35;224846.00;0.75;388.68;0.00;0.00;0.62;;;;;24.90;1.00;;;;;;2276183;60;1340;-84
2021/08/03 08:34:02;362143.00;1.21;624.73;7992.00;0.03;14.47;;;;;25.30;1.00;;;;;;2277358;60;977;-83
2021/08/03 08:36:29;378330.00;1.26;652.55;26566.00;0.09;46.64;;;;;25.80;1.00;;;;;;2264739;61;2003;-83
2021/08/03 08:41:24;145720.00;0.49;252.43;0.00;0.00;0.62;;;;;25.70;1.00;;;;;;2278750;60;1450;-81
2021/08/03 08:43:53;50858.00;0.17;88.67;0.00;0.00;0.62;;;;;25.70;1.00;;;;;;2267040;60;936;-86
2021/08/03 08:46:20;164582.00;0.55;284.93;0.00;0.00;0.62;;;;;25.80;1.00;;;;;;2264245;61;983;-84
2021/08/03 08:48:49;222838.00;0.74;385.23;46469.00;0.15;81.08;;;;;26.20;1.00;;;;;;2254583;61;1019;-84
2021/08/03 08:51:16;201048.00;0.67;347.73;0.00;0.00;0.62;;;;;25.90;1.00;;;;;;2252506;61;1417;-84
2021/08/03 08:53:43;316421.00;1.05;546.15;0.00;0.00;0.62;;;;;26.10;1.00;;;;;;2248730;61;1037;-84
2021/08/03 08:56:11;231014.00;0.77;399.29;0.00;0.00;0.62;;;;;26.60;1.00;;;;;;2248864;61;1916;-83
2021/08/03 08:58:38;135876.00;0.45;235.46;0.00;0.00;0.62;;;;;27.20;1.00;;;;;;2248899;61;1025;-81
2021/08/03 09:01:06;25406.00;0.08;44.63;0.00;0.00;0.62;;;;;27.60;1.00;;;;;;2245407;61;1295;-84
2021/08/03 09:03:34;124280.00;0.41;215.46;0.00;0.00;0.62;;;;;27.50;1.00;;;;;;2249177;61;941;-84
2021/08/03 09:06:02;144815.00;0.48;250.87;0.00;0.00;0.62;;;;;27.80;1.00;;;;;;2252613;61;1035;-83
2021/08/03 09:13:28;926436.00;3.09;1602.60;0.00;0.00;0.62;;;;;27.20;1.00;;;;;;2278439;60;1395;-83
2021/08/03 09:20:52;688591.00;2.30;1187.46;65765.00;0.22;114.44;;;;;26.20;1.00;;;;;;2278817;60;1374;-82
2021/08/03 09:23:19;276274.00;0.92;477.13;113032.00;0.38;196.06;;;;;25.60;1.00;;;;;;2277240;60;1302;-83
2021/08/03 09:30:47;1384276.00;4.61;2427.19;66625.00;0.22;115.93;;;;;25.50;1.00;;;;;;2278204;60;1186;-80
2021/08/03 09:35:46;244590.00;0.82;422.65;70331.00;0.23;122.33;;;;;25.10;1.00;;;;;;2286525;60;1354;-83
2021/08/03 09:38:18;35535.00;0.12;62.16;67037.00;0.22;116.64;;;;;25.30;1.00;;;;;;2280054;61;964;-84
2021/08/03 09:40:46;122978776.00;409.93;75348464.00;0.00;0.00;0.62;;;;;25.30;1.00;;;;;;2272322;61;954;-83
2021/08/03 09:43:14;173388.00;0.58;300.10;23154.00;0.08;40.73;;;;;25.30;1.00;;;;;;2260739;61;1428;-84
2021/08/03 09:45:58;138701.00;0.46;240.33;0.00;0.00;0.62;;;;;25.60;1.00;;;;;;2260452;61;1013;-82
2021/08/03 09:48:30;186785.00;0.62;323.17;0.00;0.00;0.62;;;;;25.60;1.00;;;;;;2252639;61;971;-83
2021/08/03 09:51:04;123789.00;0.41;214.62;0.00;0.00;0.62;;;;;25.50;1.00;;;;;;2252673;61;940;-82
2021/08/03 09:53:50;0.00;0.00;0.62;0.00;0.00;0.62;;;;;25.40;1.00;;;;;;2252744;61;979;-83
2021/08/03 09:56:20;173890.00;0.58;300.97;72061.00;0.24;125.32;;;;;25.40;1.00;;;;;;2247951;61;1920;-83
2021/08/03 09:58:58;168874.00;0.56;292.33;63595.00;0.21;110.69;;;;;25.40;1.00;;;;;;2256062;61;982;-81
2021/08/03 10:01:27;242161.00;0.81;418.47;65988.00;0.22;114.83;;;;;25.40;1.00;;;;;;2266942;61;1424;-83
2021/08/03 10:06:52;302338.00;1.01;521.94;64758.00;0.22;112.70;;;;;24.90;1.00;;;;;;2282666;60;1388;-84
2021/08/03 10:14:23;70340.00;0.23;122.35;0.00;0.00;0.62;;;;;24.70;1.00;;;;;;2286384;60;1441;-84
2021/08/03 10:16:51;167611.00;0.56;290.15;23931.00;0.08;42.08;;;;;24.70;1.00;;;;;;2280250;61;2001;-84
2021/08/03 10:21:54;100010.00;0.33;173.59;0.00;0.00;0.62;;;;;24.40;1.00;;;;;;2282880;60;1400;-83
2021/08/03 10:24:29;168728.00;0.56;292.08;0.00;0.00;0.62;;;;;24.40;1.00;;;;;;2281093;60;1121;-83
2021/08/03 10:27:06;178508.00;0.60;308.92;0.00;0.00;0.62;;;;;24.10;1.00;;;;;;2281012;60;925;-81
2021/08/03 10:29:57;55768.00;0.19;97.16;0.00;0.00;0.62;;;;;23.90;1.00;;;;;;2281153;60;1052;-83
2021/08/03 10:32:42;77190.00;0.26;134.18;0.00;0.00;0.62;;;;;23.80;1.00;;;;;;2273739;60;1305;-84
2021/08/03 10:35:16;49825.00;0.17;86.88;0.00;0.00;0.62;;;;;24.00;1.00;;;;;;2281033;60;906;-83
2021/08/03 10:38:02;0.00;0.00;0.62;0.00;0.00;0.62;;;;;24.10;1.00;;;;;;2448331;39;3741;31
2021/08/03 10:41:02;109670.00;0.37;190.26;0.00;0.00;0.62;;;;;24.50;1.00;;;;;;2271482;61;1355;-83
2021/08/03 10:43:41;0.00;0.00;0.62;0.00;0.00;0.62;;;;;24.80;1.00;;;;;;2265897;61;1019;-81
2021/08/03 10:46:38;80918.00;0.27;140.62;0.00;0.00;0.62;;;;;24.90;1.00;;;;;;2264440;61;1023;-84
2021/08/03 10:49:06;0.00;0.00;0.62;0.00;0.00;0.62;;;;;25.30;1.00;;;;;;2264626;61;950;-85
2021/08/03 10:51:47;35348.00;0.12;61.84;0.00;0.00;0.62;;;;;25.30;1.00;;;;;;2256472;61;1421;-86
2021/08/03 10:54:19;0.00;0.00;0.62;0.00;0.00;0.62;;;;;25.20;1.00;;;;;;2249965;61;960;-84
2021/08/03 10:59:42;117798800.00;392.66;66214796.00;0.00;0.00;0.62;;;;;25.00;1.00;;;;;;2282750;60;1354;-85
2021/08/03 11:02:44;195514.00;0.65;338.20;9692.00;0.03;17.42;;;;;25.20;1.00;;;;;;2281036;60;1687;-83
2021/08/03 11:05:27;0.00;0.00;0.62;0.00;0.00;0.62;;;;;25.50;1.00;;;;;;2270505;60;971;-83
2021/08/03 11:07:54;0.00;0.00;0.62;0.00;0.00;0.62;;;;;25.60;1.00;;;;;;2268545;61;998;-85
2021/08/03 11:10:34;0.00;0.00;0.62;0.00;0.00;0.62;;;;;26.00;1.00;;;;;;2262022;61;1113;-83
2021/08/03 11:13:03;99813.00;0.33;173.25;0.00;0.00;0.62;;;;;25.50;1.00;;;;;;2261826;61;1389;-81
2021/08/03 11:15:40;169193.00;0.56;292.88;66731.00;0.22;116.11;;;;;25.10;1.00;;;;;;2261863;61;986;-85
2021/08/03 11:24:02;207741.00;0.69;359.25;70717.00;0.24;123.00;;;;;24.50;1.00;;;;;;2286972;60;1404;-82
2021/08/03 11:26:35;208061.00;0.69;359.80;0.00;0.00;0.62;;;;;24.50;1.00;;;;;;2285045;60;1025;-83
2021/08/03 11:32:10;0.00;0.00;0.62;0.00;0.00;0.62;;;;;23.90;1.00;;;;;;2268610;61;1400;-80
2021/08/03 11:38:09;206870.00;0.69;357.75;0.00;0.00;0.62;;;;;23.40;1.00;;;;;;2252481;61;1992;-82
2021/08/03 11:53:25;232827.00;0.78;402.41;0.00;0.00;0.62;;;;;23.40;1.00;;;;;;2282423;60;1402;-80
2021/08/03 11:56:00;298107.00;0.99;514.67;61044.00;0.20;106.28;;;;;23.90;1.00;;;;;;2273553;60;962;-82
2021/08/03 12:01:12;40403.00;0.13;70.59;0.00;0.00;0.62;;;;;24.20;1.00;;;;;;2282642;60;1397;-83
2021/08/03 12:08:43;139724.00;0.47;242.10;0.00;0.00;0.62;;;;;22.10;1.00;;;;;;2287082;60;1400;-83
2021/08/03 12:14:14;69251.00;0.23;120.47;0.00;0.00;0.62;;;;;21.60;1.00;;;;;;2286777;60;1361;-82